createdAt,value
2022-12-01T00:02:06.407Z,38.50
2022-12-01T00:04:57.454Z,37.63
2022-12-01T00:07:49.103Z,34.53
2022-12-01T00:10:39.815Z,36.20
2022-12-01T00:13:28.417Z,37.30
2022-12-01T00:16:22.133Z,37.20
2022-12-01T00:19:10.780Z,37.67
2022-12-01T00:22:03.656Z,35.17
2022-12-01T00:24:54.217Z,36.00
2022-12-01T00:27:53.335Z,33.93
2022-12-01T00:30:41.920Z,35.93
2022-12-01T00:33:30.535Z,39.33
2022-12-01T00:36:19.337Z,35.27
2022-12-01T00:39:09.472Z,35.50
2022-12-01T00:41:59.188Z,37.47
2022-12-01T00:44:51.836Z,38.30
2022-12-01T00:47:41.968Z,36.07
2022-12-01T00:50:32.187Z,35.90
2022-12-01T00:53:41.027Z,34.60
2022-12-01T00:56:35.744Z,38.17
2022-12-01T00:59:27.276Z,35.40
2022-12-01T01:02:18.614Z,36.07
2022-12-01T01:05:14.136Z,37.73
2022-12-01T01:08:02.758Z,37.30
2022-12-01T01:10:57.894Z,38.07
2022-12-01T01:13:48.533Z,38.50
2022-12-01T01:16:39.747Z,38.90
2022-12-01T01:19:31.977Z,36.60
2022-12-01T01:22:21.783Z,37.73
2022-12-01T01:25:15.183Z,39.10
2022-12-01T01:28:05.760Z,37.87
2022-12-01T01:30:54.340Z,36.47
2022-12-01T01:33:45.823Z,36.53
2022-12-01T01:36:36.852Z,38.20
2022-12-01T01:39:28.132Z,37.13
2022-12-01T01:42:19.284Z,37.40
2022-12-01T01:45:22.157Z,39.03
2022-12-01T01:48:14.153Z,37.57
2022-12-01T01:51:12.724Z,37.30
2022-12-01T01:54:08.852Z,35.80
2022-12-01T01:56:58.981Z,36.27
2022-12-01T01:59:54.158Z,35.80
2022-12-01T02:02:50.073Z,35.13
2022-12-01T02:05:42.797Z,37.20
2022-12-01T02:08:47.783Z,39.27
2022-12-01T02:11:53.954Z,37.60
2022-12-01T02:15:00.216Z,35.73
2022-12-01T02:17:54.259Z,37.70
2022-12-01T02:21:00.702Z,38.70
2022-12-01T02:24:08.275Z,39.33
2022-12-01T02:27:02.811Z,36.33
2022-12-01T02:30:13.773Z,36.80
2022-12-01T02:33:13.413Z,38.00
2022-12-01T02:36:03.515Z,37.90
2022-12-01T02:38:57.943Z,37.10
2022-12-01T02:41:51.100Z,37.90
2022-12-01T02:44:41.679Z,37.30
2022-12-01T02:47:33.385Z,37.67
2022-12-01T02:50:32.876Z,39.40
2022-12-01T02:53:21.598Z,37.43
2022-12-01T02:56:14.632Z,38.20
2022-12-01T02:59:05.245Z,39.43
2022-12-01T03:02:10.618Z,39.30
2022-12-01T03:05:03.136Z,37.83
2022-12-01T03:07:58.564Z,39.40
2022-12-01T03:10:52.448Z,38.83
2022-12-01T03:13:44.495Z,38.10
2022-12-01T03:16:37.822Z,39.10
2022-12-01T03:19:32.418Z,37.90
2022-12-01T03:22:24.818Z,36.50
2022-12-01T03:25:15.623Z,37.93
2022-12-01T03:28:21.219Z,38.23
2022-12-01T03:31:24.126Z,38.77
2022-12-01T03:34:29.984Z,38.17
2022-12-01T03:37:22.198Z,40.47
2022-12-01T03:40:13.295Z,38.80
2022-12-01T03:43:07.615Z,40.03
2022-12-01T03:45:58.592Z,38.40
2022-12-01T03:48:48.616Z,38.37
2022-12-01T03:51:43.309Z,39.37
2022-12-01T03:54:43.884Z,38.10
2022-12-01T03:57:35.490Z,40.00
2022-12-01T04:00:25.634Z,37.70
2022-12-01T04:03:24.192Z,39.00
2022-12-01T04:06:14.280Z,38.17
2022-12-01T04:09:02.838Z,39.50
2022-12-01T04:12:08.820Z,37.90
2022-12-01T04:14:57.811Z,40.47
2022-12-01T04:17:47.818Z,38.30
2022-12-01T04:20:36.391Z,39.07
2022-12-01T04:23:43.975Z,37.20
2022-12-01T04:26:37.420Z,36.07
2022-12-01T04:29:27.078Z,35.23
2022-12-01T04:32:20.183Z,39.23
2022-12-01T04:35:11.597Z,38.53
2022-12-01T04:38:01.008Z,36.93
2022-12-01T04:40:49.571Z,39.47
2022-12-01T04:43:41.185Z,38.03
2022-12-01T04:46:32.126Z,37.00
2022-12-01T04:49:27.428Z,39.23
2022-12-01T04:52:22.136Z,39.47
2022-12-01T04:55:11.242Z,38.00
2022-12-01T04:58:02.693Z,38.57
2022-12-01T05:00:51.291Z,39.20
2022-12-01T05:03:42.298Z,36.87
2022-12-01T05:06:34.299Z,37.57
2022-12-01T05:09:27.931Z,37.20
2022-12-01T05:12:25.673Z,37.93
2022-12-01T05:15:20.368Z,37.27
2022-12-01T05:18:18.939Z,37.77
2022-12-01T05:21:06.908Z,37.17
2022-12-01T05:24:00.145Z,34.87
2022-12-01T05:26:56.901Z,35.70
2022-12-01T05:29:47.176Z,36.00
2022-12-01T05:32:37.999Z,37.80
2022-12-01T05:35:28.548Z,37.87
2022-12-01T05:38:17.345Z,39.00
2022-12-01T05:41:07.605Z,35.70
2022-12-01T05:43:57.519Z,38.13
2022-12-01T05:46:51.551Z,39.50
2022-12-01T05:49:52.103Z,34.70
2022-12-01T05:52:44.869Z,36.77
2022-12-01T05:55:36.721Z,36.67
2022-12-01T05:58:25.375Z,38.57
2022-12-01T06:01:18.433Z,36.40
2022-12-01T06:04:11.453Z,36.30
2022-12-01T06:07:01.237Z,37.33
2022-12-01T06:09:51.943Z,35.80
2022-12-01T06:12:42.378Z,37.70
2022-12-01T06:15:35.723Z,38.27
2022-12-01T06:18:27.905Z,37.80
2022-12-01T06:21:18.780Z,37.33
2022-12-01T06:24:11.918Z,37.57
2022-12-01T06:27:00.482Z,37.20
2022-12-01T06:29:54.900Z,37.00
2022-12-01T06:32:46.240Z,37.10
2022-12-01T06:35:36.263Z,36.83
2022-12-01T06:38:26.627Z,38.53
2022-12-01T06:41:18.316Z,37.80
2022-12-01T06:44:07.079Z,35.27
2022-12-01T06:47:07.862Z,37.77
2022-12-01T06:49:58.352Z,37.10
2022-12-01T06:52:48.478Z,36.50
2022-12-01T06:55:42.891Z,38.17
2022-12-01T06:58:31.819Z,36.10
2022-12-01T07:01:22.830Z,37.90
2022-12-01T07:04:18.813Z,39.07
2022-12-01T07:07:16.260Z,38.00
2022-12-01T07:10:10.888Z,37.00
2022-12-01T07:13:11.167Z,37.93
2022-12-01T07:16:04.589Z,37.30
2022-12-01T07:18:57.596Z,36.20
2022-12-01T07:21:51.868Z,37.77
2022-12-01T07:24:51.424Z,38.83
2022-12-01T07:27:45.395Z,38.30
2022-12-01T07:30:50.622Z,36.50
2022-12-01T07:33:42.189Z,36.20
2022-12-01T07:36:31.989Z,36.63
2022-12-01T07:39:20.564Z,37.17
2022-12-01T07:42:10.812Z,38.20
2022-12-01T07:45:11.455Z,35.63
2022-12-01T07:48:10.076Z,37.03
2022-12-01T07:50:58.612Z,36.23
2022-12-01T07:53:54.883Z,37.70
2022-12-01T07:56:43.434Z,39.13
2022-12-01T07:59:32.018Z,35.90
2022-12-01T08:02:24.789Z,36.07
2022-12-01T08:05:17.732Z,40.20
2022-12-01T08:08:06.576Z,38.47
2022-12-01T08:10:55.561Z,35.93
2022-12-01T08:13:46.329Z,36.10
2022-12-01T08:16:37.316Z,34.07
2022-12-01T08:19:31.429Z,33.80
2022-12-01T08:22:21.772Z,34.53
2022-12-01T08:25:14.162Z,36.13
2022-12-01T08:28:04.311Z,34.73
2022-12-01T08:30:52.910Z,34.37
2022-12-01T08:33:43.318Z,34.57
2022-12-01T08:36:38.148Z,33.00
2022-12-01T08:39:27.882Z,33.40
2022-12-01T08:42:17.560Z,34.00
2022-12-01T08:45:06.477Z,35.70
2022-12-01T08:47:59.087Z,31.40
2022-12-01T08:50:50.577Z,34.00
2022-12-01T08:53:45.794Z,32.87
2022-12-01T08:56:35.543Z,32.53
2022-12-01T08:59:27.133Z,32.03
2022-12-01T09:02:18.242Z,32.80
2022-12-01T09:05:11.352Z,30.00
2022-12-01T09:08:16.447Z,30.80
2022-12-01T09:11:10.328Z,31.73
2022-12-01T09:14:00.649Z,31.70
2022-12-01T09:16:51.549Z,30.50
2022-12-01T09:19:40.150Z,29.60
2022-12-01T09:22:34.636Z,28.67
2022-12-01T09:25:31.665Z,30.67
2022-12-01T09:28:24.489Z,28.90
2022-12-01T09:31:13.917Z,28.63
2022-12-01T09:34:05.307Z,29.70
2022-12-01T09:36:59.112Z,29.60
2022-12-01T09:39:52.017Z,27.23
2022-12-01T09:42:43.032Z,29.73
2022-12-01T09:45:34.890Z,28.40
2022-12-01T09:48:27.320Z,27.13
2022-12-01T09:51:18.727Z,25.87
2022-12-01T09:54:10.824Z,26.93
2022-12-01T09:57:10.787Z,26.90
2022-12-01T10:00:05.899Z,24.37
2022-12-01T10:02:58.846Z,23.80
2022-12-01T10:06:25.228Z,22.53
2022-12-01T10:09:05.217Z,25.67
2022-12-01T10:11:57.567Z,25.13
2022-12-01T10:14:48.272Z,23.70
2022-12-01T10:17:44.244Z,22.67
2022-12-01T10:20:37.449Z,23.80
2022-12-01T10:23:42.188Z,24.60
2022-12-01T10:26:36.387Z,21.47
2022-12-01T10:29:30.389Z,24.23
2022-12-01T10:32:33.820Z,23.47
2022-12-01T10:35:23.813Z,23.07
2022-12-01T10:38:25.977Z,23.33
2022-12-01T10:41:19.019Z,24.60
2022-12-01T10:44:08.690Z,25.07
2022-12-01T10:46:57.778Z,21.40
2022-12-01T10:49:49.819Z,21.27
2022-12-01T10:52:39.749Z,21.57
2022-12-01T10:56:21.230Z,20.37
2022-12-01T10:58:53.142Z,19.40
2022-12-01T11:01:52.922Z,18.80
2022-12-01T11:04:48.503Z,18.73
2022-12-01T11:07:44.599Z,17.73
2022-12-01T11:10:39.178Z,19.30
2022-12-01T11:13:34.512Z,17.83
2022-12-01T11:16:44.143Z,17.47
2022-12-01T11:19:35.156Z,17.73
2022-12-01T11:22:26.090Z,18.27
2022-12-01T11:25:21.841Z,17.23
2022-12-01T11:28:21.841Z,20.33
2022-12-01T11:31:11.391Z,18.20
2022-12-01T11:34:04.110Z,17.73
2022-12-01T11:36:54.848Z,20.10
2022-12-01T11:39:47.694Z,21.00
2022-12-01T11:43:04.128Z,21.50
2022-12-01T11:46:00.257Z,21.10
2022-12-01T11:49:01.846Z,20.93
2022-12-01T11:51:52.045Z,22.43
2022-12-01T11:54:56.056Z,21.20
2022-12-01T11:57:50.974Z,20.73
2022-12-01T12:00:47.948Z,19.83
2022-12-01T12:03:46.888Z,21.43
2022-12-01T12:06:41.602Z,20.53
2022-12-01T12:09:35.666Z,20.60
2022-12-01T12:12:38.992Z,19.70
2022-12-01T12:15:36.441Z,19.10
2022-12-01T12:18:38.672Z,19.47
2022-12-01T12:21:32.780Z,20.27
2022-12-01T12:24:39.866Z,19.10
2022-12-01T12:27:37.981Z,18.50
2022-12-01T12:30:33.277Z,19.27
2022-12-01T12:33:34.809Z,19.40
2022-12-01T12:36:28.317Z,19.40
2022-12-01T12:39:26.913Z,18.10
2022-12-01T12:42:19.277Z,16.10
2022-12-01T12:45:13.700Z,14.57
2022-12-01T12:48:19.471Z,17.53
2022-12-01T12:51:18.685Z,16.07
2022-12-01T12:54:14.590Z,16.67
2022-12-01T12:57:09.607Z,15.30
2022-12-01T13:00:03.015Z,14.83
2022-12-01T13:02:58.083Z,16.43
2022-12-01T13:05:54.907Z,13.67
2022-12-01T13:08:52.227Z,15.60
2022-12-01T13:11:46.113Z,14.97
2022-12-01T13:14:41.273Z,15.60
2022-12-01T13:17:32.720Z,14.93
2022-12-01T13:20:31.264Z,14.47
2022-12-01T13:23:21.791Z,14.90
2022-12-01T13:26:13.069Z,16.47
2022-12-01T13:29:01.894Z,15.33
2022-12-01T13:31:55.856Z,15.23
2022-12-01T13:34:53.747Z,14.97
2022-12-01T13:37:44.408Z,14.77
2022-12-01T13:40:34.312Z,14.73
2022-12-01T13:43:25.466Z,13.70
2022-12-01T13:46:20.922Z,13.47
2022-12-01T13:49:28.855Z,13.70
2022-12-01T13:52:30.886Z,14.77
2022-12-01T13:55:27.741Z,13.70
2022-12-01T13:58:28.774Z,14.40
2022-12-01T14:01:36.339Z,14.60
2022-12-01T14:04:37.359Z,14.67
2022-12-01T14:07:49.645Z,13.43
2022-12-01T14:10:55.723Z,13.27
2022-12-01T14:13:50.242Z,12.93
2022-12-01T14:16:51.584Z,14.63
2022-12-01T14:19:51.999Z,13.53
2022-12-01T14:22:43.724Z,12.90
2022-12-01T14:25:39.845Z,13.87
2022-12-01T14:28:54.445Z,12.80
2022-12-01T14:32:02.713Z,12.23
2022-12-01T14:35:04.008Z,13.70
2022-12-01T14:37:57.090Z,14.73
2022-12-01T14:40:45.635Z,13.30
2022-12-01T14:43:55.269Z,13.83
2022-12-01T14:46:48.836Z,14.50
2022-12-01T14:49:52.671Z,13.80
2022-12-01T14:52:44.019Z,13.30
2022-12-01T14:55:42.357Z,15.00
2022-12-01T14:58:32.421Z,12.20
2022-12-01T15:01:26.187Z,13.47
2022-12-01T15:04:15.420Z,14.90
2022-12-01T15:07:04.064Z,14.50
2022-12-01T15:10:10.018Z,13.97
2022-12-01T15:13:00.762Z,13.47
2022-12-01T15:15:53.643Z,13.23
2022-12-01T15:18:42.252Z,14.57
2022-12-01T15:21:31.648Z,14.40
2022-12-01T15:24:26.637Z,12.93
2022-12-01T15:27:27.461Z,14.23
2022-12-01T15:30:22.870Z,14.00
2022-12-01T15:33:18.413Z,12.63
2022-12-01T15:36:11.259Z,13.77
2022-12-01T15:39:07.178Z,13.40
2022-12-01T15:42:05.668Z,14.37
2022-12-01T15:45:02.785Z,13.33
2022-12-01T15:47:56.684Z,12.73
2022-12-01T15:50:50.347Z,12.87
2022-12-01T15:53:45.259Z,14.00
2022-12-01T15:56:38.464Z,13.00
2022-12-01T15:59:36.888Z,12.50
2022-12-01T16:02:29.954Z,12.87
2022-12-01T16:05:19.814Z,12.53
2022-12-01T16:08:22.146Z,11.73
2022-12-01T16:11:11.756Z,12.17
2022-12-01T16:14:02.252Z,12.90
2022-12-01T16:16:51.475Z,13.47
2022-12-01T16:19:49.963Z,12.70
2022-12-01T16:22:38.637Z,13.33
2022-12-01T16:25:40.430Z,13.07
2022-12-01T16:28:38.959Z,13.70
2022-12-01T16:31:30.315Z,14.37
2022-12-01T16:34:44.569Z,13.90
2022-12-01T16:37:51.454Z,13.20
2022-12-01T16:40:42.148Z,14.50
2022-12-01T16:43:35.380Z,16.87
2022-12-01T16:46:25.174Z,15.80
2022-12-01T16:49:13.853Z,15.60
2022-12-01T16:52:42.970Z,17.53
2022-12-01T16:55:40.042Z,16.63
2022-12-01T16:58:36.561Z,16.17
2022-12-01T17:01:29.390Z,15.93
2022-12-01T17:04:20.549Z,15.17
2022-12-01T17:07:11.496Z,15.13
2022-12-01T17:10:00.720Z,16.67
2022-12-01T17:12:56.041Z,16.77
2022-12-01T17:15:48.409Z,17.23
2022-12-01T17:18:47.776Z,17.20
2022-12-01T17:21:41.664Z,16.27
2022-12-01T17:24:34.394Z,18.10
2022-12-01T17:27:25.840Z,20.20
2022-12-01T17:30:20.208Z,19.10
2022-12-01T17:33:08.770Z,18.30
2022-12-01T17:36:01.820Z,18.50
2022-12-01T17:38:53.418Z,17.50
2022-12-01T17:41:43.332Z,17.60
2022-12-01T17:44:35.187Z,17.43
2022-12-01T17:47:27.096Z,17.50
2022-12-01T17:50:18.433Z,16.40
2022-12-01T17:53:13.363Z,16.10
2022-12-01T17:56:04.276Z,16.70
2022-12-01T17:58:56.948Z,16.40
2022-12-01T18:01:45.556Z,16.57
2022-12-01T18:04:38.853Z,17.60
2022-12-01T18:07:27.552Z,17.10
2022-12-01T18:10:22.695Z,16.27
2022-12-01T18:13:13.296Z,17.67
2022-12-01T18:16:09.042Z,17.60
2022-12-01T18:19:22.275Z,16.20
2022-12-01T18:22:18.730Z,16.30
2022-12-01T18:25:11.360Z,17.30
2022-12-01T18:28:01.499Z,16.27
2022-12-01T18:31:00.045Z,15.60
2022-12-01T18:33:52.932Z,16.13
2022-12-01T18:36:42.408Z,16.60
2022-12-01T18:39:44.975Z,17.30
2022-12-01T18:42:34.771Z,16.70
2022-12-01T18:45:30.899Z,18.37
2022-12-01T18:48:26.160Z,18.10
2022-12-01T18:51:16.834Z,16.30
2022-12-01T18:54:10.899Z,17.97
2022-12-01T18:57:06.881Z,16.30
2022-12-01T18:59:57.899Z,17.03
2022-12-01T19:02:48.860Z,16.43
2022-12-01T19:05:48.676Z,16.03
2022-12-01T19:08:37.480Z,16.23
2022-12-01T19:11:36.047Z,15.80
2022-12-01T19:14:29.983Z,16.83
2022-12-01T19:17:24.109Z,18.43
2022-12-01T19:20:17.437Z,18.37
2022-12-01T19:23:09.039Z,17.30
2022-12-01T19:26:01.592Z,18.47
2022-12-01T19:28:50.570Z,18.60
2022-12-01T19:31:40.751Z,17.60
2022-12-01T19:34:38.031Z,17.50
2022-12-01T19:37:26.861Z,18.30
2022-12-01T19:40:20.322Z,18.53
2022-12-01T19:43:17.617Z,19.50
2022-12-01T19:46:10.457Z,17.50
2022-12-01T19:49:11.959Z,18.57
2022-12-01T19:52:08.250Z,17.67
2022-12-01T19:55:10.725Z,19.00
2022-12-01T19:58:05.865Z,19.57
2022-12-01T20:00:57.093Z,18.23
2022-12-01T20:03:46.731Z,17.60
2022-12-01T20:06:42.866Z,17.33
2022-12-01T20:09:31.484Z,19.37
2022-12-01T20:12:22.123Z,18.90
2022-12-01T20:15:11.350Z,17.80
2022-12-01T20:18:01.637Z,17.47
2022-12-01T20:20:54.703Z,18.07
2022-12-01T20:23:49.557Z,18.13
2022-12-01T20:26:51.747Z,17.90
2022-12-01T20:29:42.511Z,17.20
2022-12-01T20:32:31.253Z,18.50
2022-12-01T20:35:28.418Z,20.47
2022-12-01T20:38:22.921Z,17.90
2022-12-01T20:41:22.516Z,20.13
2022-12-01T20:44:19.864Z,18.90
2022-12-01T20:47:14.625Z,19.50
2022-12-01T20:50:03.213Z,20.00
2022-12-01T20:53:00.272Z,19.57
2022-12-01T20:55:57.711Z,19.93
2022-12-01T20:58:55.889Z,20.13
2022-12-01T21:01:53.424Z,20.00
2022-12-01T21:04:46.454Z,20.37
2022-12-01T21:07:44.805Z,19.73
2022-12-01T21:10:40.790Z,19.20
2022-12-01T21:13:49.057Z,20.03
2022-12-01T21:16:40.007Z,18.13
2022-12-01T21:19:38.069Z,17.73
2022-12-01T21:22:31.868Z,18.17
2022-12-01T21:25:24.507Z,19.10
2022-12-01T21:28:18.791Z,18.70
2022-12-01T21:31:13.744Z,19.90
2022-12-01T21:34:03.851Z,19.47
2022-12-01T21:36:55.640Z,21.20
2022-12-01T21:39:45.697Z,21.40
2022-12-01T21:42:34.267Z,18.73
2022-12-01T21:45:26.020Z,20.27
2022-12-01T21:51:27.714Z,19.90
2022-12-01T21:54:23.142Z,18.40
2022-12-01T21:57:29.173Z,18.20
2022-12-01T22:00:29.900Z,18.70
2022-12-01T22:03:28.899Z,19.17
2022-12-01T22:06:30.434Z,18.23
2022-12-01T22:09:23.637Z,17.73
2022-12-01T22:12:19.133Z,19.00
2022-12-01T22:15:13.688Z,20.43
2022-12-01T22:18:07.256Z,18.23
2022-12-01T22:20:58.040Z,17.87
2022-12-01T22:23:50.520Z,19.87
2022-12-01T22:26:44.461Z,17.80
2022-12-01T22:29:35.603Z,17.60
2022-12-01T22:32:36.864Z,18.90
2022-12-01T22:35:30.760Z,16.70
2022-12-01T22:38:27.338Z,18.57
2022-12-01T22:41:21.068Z,17.30
2022-12-01T22:44:13.234Z,17.23
